Time;durP1;ratioP1;P1;durP2;ratioP2;P2;SDS_P1;SDS_P2;PMS_P1;PMS_P2;Temp;Humidity;BMP_temperature;BMP_pressure;BME280_temperature;BME280_humidity;BME280_pressure;Samples;Min_cycle;Max_cycle;Signal;HPM_P1;HPM_P2
2023/01/01 00:01:27;;;;;;;135.20;72.60;;;;;;;1.96;100.00;102003.54;105651;1266;59105;-73
2023/01/01 00:03:58;;;;;;;98.40;56.40;;;;;;;1.97;100.00;102010.91;105681;1266;60964;-73
2023/01/01 00:06:27;;;;;;;108.60;58.30;;;;;;;1.94;100.00;102003.22;105827;1265;63067;-72
2023/01/01 00:11:44;;;;;;;101.50;54.60;;;;;;;1.90;100.00;102005.02;105868;1264;69429;-72
2023/01/01 00:14:13;;;;;;;121.50;64.10;;;;;;;1.87;100.00;102000.60;105805;1266;74171;-73
2023/01/01 00:16:41;;;;;;;95.70;54.20;;;;;;;1.87;100.00;102001.09;105858;1262;61464;-72
2023/01/01 00:19:10;;;;;;;97.80;53.40;;;;;;;1.84;100.00;102000.98;105744;1267;59221;-72
2023/01/01 00:21:39;;;;;;;102.80;56.20;;;;;;;1.80;100.00;102003.77;105691;1273;71646;-75
2023/01/01 00:24:08;;;;;;;115.40;62.00;;;;;;;1.78;100.00;102008.63;105751;1274;70956;-71
2023/01/01 00:26:37;;;;;;;101.00;57.40;;;;;;;1.75;100.00;102006.27;105694;1263;70888;-71
2023/01/01 00:29:05;;;;;;;103.80;57.40;;;;;;;1.72;100.00;102007.53;105692;1264;74047;-73
2023/01/01 00:31:34;;;;;;;120.30;63.60;;;;;;;1.64;100.00;101999.75;105695;1270;59024;-71
2023/01/01 00:34:03;;;;;;;101.40;54.90;;;;;;;1.65;100.00;102004.36;105724;1270;58520;-71
2023/01/01 00:36:32;;;;;;;106.50;57.60;;;;;;;1.75;100.00;102011.25;105800;1260;62862;-73
2023/01/01 00:39:02;;;;;;;95.40;50.40;;;;;;;1.73;100.00;102014.02;105684;1267;69402;-73
2023/01/01 00:41:30;;;;;;;105.60;57.40;;;;;;;1.71;100.00;102012.35;105605;1267;70743;-72
2023/01/01 00:43:59;;;;;;;101.70;56.80;;;;;;;1.73;100.00;102014.02;105632;1259;63603;-72
2023/01/01 00:46:28;;;;;;;85.30;46.30;;;;;;;1.72;100.00;102015.95;105614;1273;57398;-71
2023/01/01 00:48:57;;;;;;;96.90;53.60;;;;;;;1.71;100.00;102018.36;105376;1261;335186;-71
2023/01/01 00:51:26;;;;;;;89.80;49.00;;;;;;;1.74;100.00;102014.02;105577;1267;73580;-71
2023/01/01 00:54:02;;;;;;;101.00;54.60;;;;;;;1.74;100.00;102013.33;105668;1264;60564;-71
2023/01/01 00:56:31;;;;;;;82.60;47.20;;;;;;;1.75;100.00;102013.14;105667;1270;71427;-72
2023/01/01 00:59:00;;;;;;;76.60;44.50;;;;;;;1.74;100.00;102011.95;105736;1271;74114;-71
2023/01/01 01:01:29;;;;;;;120.80;64.60;;;;;;;1.72;100.00;102012.84;105512;1267;63011;-72
2023/01/01 01:03:59;;;;;;;103.20;59.40;;;;;;;1.71;100.00;102005.98;105666;1263;61609;-75
2023/01/01 01:06:28;;;;;;;111.90;59.70;;;;;;;1.72;100.00;102004.25;105714;1264;74464;-72
2023/01/01 01:08:56;;;;;;;96.10;53.10;;;;;;;1.72;100.00;102005.63;105620;1270;71412;-72
2023/01/01 01:11:25;;;;;;;104.40;56.40;;;;;;;1.69;100.00;102010.98;105701;1267;67779;-72
2023/01/01 01:13:56;;;;;;;99.80;56.00;;;;;;;1.68;100.00;102007.06;105640;1264;63228;-72
2023/01/01 01:16:31;;;;;;;113.10;60.40;;;;;;;1.73;100.00;102004.41;105563;1260;61114;-74
2023/01/01 01:19:03;;;;;;;105.20;57.20;;;;;;;1.79;100.00;102001.56;105658;1263;58697;-72
2023/01/01 01:21:33;;;;;;;106.50;58.00;;;;;;;1.84;100.00;101995.83;105566;1273;73467;-72
2023/01/01 01:24:03;;;;;;;100.80;55.30;;;;;;;1.91;100.00;102001.38;105694;1267;72362;-72
2023/01/01 01:26:35;;;;;;;101.40;56.90;;;;;;;1.94;100.00;102000.48;105615;1264;68769;-73
2023/01/01 01:29:04;;;;;;;104.30;59.20;;;;;;;1.98;100.00;102000.42;105583;1273;64403;-73
2023/01/01 01:31:33;;;;;;;107.20;59.30;;;;;;;2.03;100.00;101999.30;105655;1263;58728;-73
2023/01/01 01:34:02;;;;;;;108.40;58.50;;;;;;;2.06;100.00;101996.14;105593;1260;58856;-73
2023/01/01 01:36:31;;;;;;;105.50;58.40;;;;;;;2.07;100.00;101995.79;105591;1270;62783;-72
2023/01/01 01:39:00;;;;;;;104.10;54.90;;;;;;;2.08;100.00;101989.93;105629;1266;60843;-74
2023/01/01 01:41:29;;;;;;;106.30;57.20;;;;;;;2.12;100.00;101988.66;105591;1266;70922;-72
2023/01/01 01:44:46;;;;;;;108.30;58.90;;;;;;;2.15;100.00;101985.87;105641;1272;72808;-72
2023/01/01 01:47:47;;;;;;;87.80;50.00;;;;;;;2.19;100.00;101986.48;105398;1260;58846;-72
2023/01/01 01:50:29;;;;;;;86.60;47.60;;;;;;;2.19;100.00;101985.98;105540;1260;62148;-71
2023/01/01 01:53:04;;;;;;;94.30;51.60;;;;;;;2.17;100.00;101987.90;105579;1260;74067;-72
2023/01/01 01:55:39;;;;;;;104.60;55.90;;;;;;;2.17;100.00;101984.98;105645;1264;71561;-71
2023/01/01 01:58:12;;;;;;;96.90;54.30;;;;;;;2.20;100.00;101978.05;105709;1274;61014;-71
2023/01/01 02:00:41;;;;;;;93.00;50.30;;;;;;;2.24;100.00;101973.85;105491;1263;71675;-71
2023/01/01 02:03:48;;;;;;;84.00;47.50;;;;;;;2.24;100.00;101966.11;105428;1269;58691;-72
2023/01/01 02:06:19;;;;;;;85.30;47.50;;;;;;;2.28;100.00;101961.92;105857;1267;60754;-71
2023/01/01 02:08:49;;;;;;;91.80;49.10;;;;;;;2.30;100.00;101955.52;105555;1266;73929;-71
2023/01/01 02:11:18;;;;;;;87.90;48.10;;;;;;;2.30;100.00;101952.23;105626;1275;71737;-72
2023/01/01 02:13:51;;;;;;;80.30;45.90;;;;;;;2.32;100.00;101952.90;105903;1266;62011;-70
2023/01/01 02:16:26;;;;;;;88.20;48.20;;;;;;;2.34;100.00;101960.10;105761;1264;73588;-72
2023/01/01 02:19:06;;;;;;;86.90;49.10;;;;;;;2.34;100.00;101958.73;105612;1275;57606;-72
2023/01/01 02:21:53;;;;;;;78.60;47.00;;;;;;;2.39;100.00;101960.34;105525;1267;58829;-71
2023/01/01 02:25:08;;;;;;;82.90;47.50;;;;;;;2.48;100.00;101968.27;105545;1261;72966;-71
2023/01/01 02:28:08;;;;;;;92.00;52.00;;;;;;;2.56;100.00;101972.05;105495;1275;72162;-71
2023/01/01 02:30:40;;;;;;;90.70;51.20;;;;;;;2.67;100.00;101965.48;105692;1256;69549;-71
2023/01/01 02:33:16;;;;;;;87.90;49.50;;;;;;;2.75;100.00;101963.27;105629;1260;62923;-71
2023/01/01 02:35:54;;;;;;;94.50;51.40;;;;;;;2.79;100.00;101959.73;105659;1264;61233;-73
2023/01/01 02:38:45;;;;;;;94.50;52.20;;;;;;;2.84;100.00;101964.80;105593;1260;61084;-72
2023/01/01 02:41:30;;;;;;;91.80;52.30;;;;;;;2.85;100.00;101966.16;105466;1267;62718;-72
2023/01/01 02:43:59;;;;;;;84.70;51.00;;;;;;;2.89;100.00;101965.39;105632;1263;61627;-71
2023/01/01 02:46:34;;;;;;;81.40;47.00;;;;;;;2.88;100.00;101965.39;105505;1260;59944;-72
2023/01/01 02:49:04;;;;;;;83.20;48.90;;;;;;;2.89;100.00;101965.04;105649;1265;62504;-70
2023/01/01 02:51:50;;;;;;;93.80;50.20;;;;;;;2.91;100.00;101965.35;105737;1263;58990;-74
2023/01/01 02:54:39;;;;;;;88.30;51.10;;;;;;;2.98;100.00;101972.09;105840;1260;61166;-72
2023/01/01 02:57:34;;;;;;;90.10;49.80;;;;;;;3.04;100.00;101972.14;105917;1273;62857;-73
2023/01/01 03:00:23;;;;;;;77.30;44.70;;;;;;;3.08;100.00;101972.05;105943;1273;61682;-71
2023/01/01 03:03:16;;;;;;;77.90;43.30;;;;;;;3.13;100.00;101969.35;105691;1263;59905;-73
2023/01/01 03:08:45;;;;;;;86.10;46.20;;;;;;;3.18;100.00;101969.95;105699;1260;59229;-71
2023/01/01 03:11:20;;;;;;;87.10;48.80;;;;;;;3.19;100.00;101967.70;105536;1272;59024;-72
2023/01/01 03:14:13;;;;;;;79.90;47.20;;;;;;;3.18;100.00;101967.70;105549;1260;72516;-73
2023/01/01 03:17:21;;;;;;;86.80;49.20;;;;;;;3.22;100.00;101968.48;105501;1275;72670;-73
2023/01/01 03:19:51;;;;;;;85.20;50.80;;;;;;;3.22;100.00;101971.40;105683;1267;69772;-71
2023/01/01 03:22:24;;;;;;;83.90;49.60;;;;;;;3.23;100.00;101974.48;105632;1256;74664;-73
2023/01/01 03:25:00;;;;;;;85.10;49.20;;;;;;;3.24;100.00;101973.79;105429;1267;61786;-74
2023/01/01 03:27:41;;;;;;;85.30;49.80;;;;;;;3.24;100.00;101972.23;105452;1266;59158;-71
2023/01/01 03:30:14;;;;;;;89.60;49.90;;;;;;;3.26;100.00;101974.77;105663;1260;72875;-71
2023/01/01 03:33:06;;;;;;;;;;;;;;;3.25;100.00;101972.38;105514;1270;62155;-71
2023/01/01 03:35:46;;;;;;;84.70;48.60;;;;;;;3.23;100.00;101976.54;105562;1261;61225;-72
2023/01/01 03:38:34;;;;;;;84.80;48.90;;;;;;;3.25;100.00;101976.68;105588;1273;63844;-72
2023/01/01 03:41:14;;;;;;;89.60;54.80;;;;;;;3.25;100.00;101975.30;105570;1273;57525;-72
2023/01/01 03:43:58;;;;;;;84.40;50.80;;;;;;;3.22;100.00;101973.98;105469;1267;59748;-72
2023/01/01 03:46:33;;;;;;;85.70;47.70;;;;;;;3.20;100.00;101972.83;105633;1273;64181;-71
2023/01/01 03:49:09;;;;;;;83.60;49.10;;;;;;;3.19;100.00;101971.81;105470;1270;71252;-71
2023/01/01 03:52:00;;;;;;;85.70;50.10;;;;;;;3.20;100.00;101968.52;105430;1275;70151;-71
2023/01/01 03:54:58;;;;;;;85.50;48.90;;;;;;;3.19;100.00;101968.71;105506;1265;62767;-73
2023/01/01 03:57:32;;;;;;;86.10;48.50;;;;;;;3.19;100.00;101966.48;105575;1264;62116;-72
2023/01/01 04:00:15;;;;;;;83.80;49.00;;;;;;;3.21;100.00;101970.39;105527;1274;59410;-72
2023/01/01 04:02:59;;;;;;;82.30;47.20;;;;;;;3.25;100.00;101969.11;105606;1256;74474;-72
2023/01/01 04:05:31;;;;;;;79.30;46.10;;;;;;;3.26;100.00;101973.23;105696;1273;62502;-76
2023/01/01 04:08:01;;;;;;;80.50;46.40;;;;;;;3.29;100.00;101970.23;105781;1266;70483;-73
2023/01/01 04:10:34;;;;;;;78.40;46.40;;;;;;;3.30;100.00;101970.73;105811;1266;63057;-71
2023/01/01 04:13:05;;;;;;;79.20;45.70;;;;;;;3.31;100.00;101974.48;105591;1265;58990;-71
2023/01/01 04:15:37;;;;;;;75.70;44.40;;;;;;;3.28;100.00;101972.98;105666;1270;59021;-73
2023/01/01 04:18:06;;;;;;;75.90;43.90;;;;;;;3.27;100.00;101975.95;105689;1264;62875;-71
2023/01/01 04:20:35;;;;;;;82.90;46.50;;;;;;;3.27;100.00;101978.70;105496;1267;61537;-71
2023/01/01 04:23:04;;;;;;;70.50;42.70;;;;;;;3.27;100.00;101980.42;105532;1274;59490;-71
2023/01/01 04:25:33;;;;;;;80.30;45.10;;;;;;;3.27;100.00;101982.50;105498;1267;62695;-71
2023/01/01 04:28:03;;;;;;;74.10;42.80;;;;;;;3.28;100.00;101985.23;105490;1260;59128;-72
2023/01/01 04:30:32;;;;;;;80.50;45.40;;;;;;;3.32;100.00;101984.96;105612;1275;60172;-73
2023/01/01 04:33:00;;;;;;;81.00;45.80;;;;;;;3.33;100.00;101981.31;105641;1269;63271;-73
2023/01/01 04:35:29;;;;;;;74.60;44.70;;;;;;;3.29;100.00;101976.59;105519;1264;61569;-72
2023/01/01 04:37:59;;;;;;;74.40;42.30;;;;;;;3.29;100.00;101977.29;105367;1270;58944;-71
2023/01/01 04:40:28;;;;;;;72.70;43.70;;;;;;;3.29;100.00;101980.04;105430;1266;64053;-72
2023/01/01 04:42:57;;;;;;;71.80;44.90;;;;;;;3.29;100.00;101981.08;105370;1265;59008;-73
2023/01/01 04:45:26;;;;;;;70.60;40.70;;;;;;;3.28;100.00;101988.84;105395;1275;58935;-73
2023/01/01 04:47:55;;;;;;;69.50;40.50;;;;;;;3.27;100.00;101992.47;105345;1263;74706;-71
2023/01/01 04:50:24;;;;;;;76.70;44.50;;;;;;;3.26;100.00;101997.83;105310;1267;73429;-72
2023/01/01 04:52:53;;;;;;;78.10;42.50;;;;;;;3.27;100.00;101999.52;105249;1273;69722;-71
2023/01/01 04:55:21;;;;;;;77.90;42.80;;;;;;;3.25;100.00;101992.70;105419;1266;74003;-72
2023/01/01 04:57:50;;;;;;;78.10;44.30;;;;;;;3.23;100.00;101994.80;105342;1261;59201;-72
2023/01/01 05:00:21;;;;;;;72.90;40.90;;;;;;;3.21;100.00;101998.98;105473;1270;59203;-72
2023/01/01 05:02:50;;;;;;;75.00;42.30;;;;;;;3.18;100.00;101998.69;105343;1266;72654;-74
2023/01/01 05:05:21;;;;;;;72.40;41.30;;;;;;;3.14;100.00;102003.80;105402;1266;71159;-71
2023/01/01 05:07:50;;;;;;;72.60;42.70;;;;;;;3.11;100.00;102003.66;105427;1267;70199;-71
2023/01/01 05:10:20;;;;;;;77.90;42.60;;;;;;;3.08;100.00;102011.82;105530;1266;72833;-72
2023/01/01 05:12:48;;;;;;;70.10;41.20;;;;;;;3.05;100.00;102012.21;105487;1270;61458;-72
2023/01/01 05:15:17;;;;;;;70.50;41.90;;;;;;;3.03;100.00;102007.78;105439;1266;58956;-71
2023/01/01 05:17:46;;;;;;;77.10;42.40;;;;;;;2.99;100.00;102011.32;105413;1275;62087;-72
2023/01/01 05:20:15;;;;;;;73.30;41.00;;;;;;;2.93;100.00;102014.70;105576;1260;61001;-73
2023/01/01 05:22:46;;;;;;;75.00;42.40;;;;;;;2.89;100.00;102015.29;105528;1258;59871;-72
2023/01/01 05:25:15;;;;;;;77.10;43.90;;;;;;;2.89;100.00;102016.84;105490;1261;73623;-72
2023/01/01 05:27:44;;;;;;;75.10;42.00;;;;;;;2.90;100.00;102017.86;105476;1267;61726;-73
2023/01/01 05:30:12;;;;;;;69.20;41.50;;;;;;;2.91;100.00;102024.70;105566;1267;61558;-71
2023/01/01 05:32:41;;;;;;;72.80;41.60;;;;;;;2.91;100.00;102025.74;105646;1266;73440;-70
2023/01/01 05:35:10;;;;;;;74.20;40.30;;;;;;;2.93;100.00;102020.20;105622;1274;73392;-72
2023/01/01 05:37:39;;;;;;;76.00;42.00;;;;;;;2.94;100.00;102016.74;105622;1265;60302;-73
2023/01/01 05:40:10;;;;;;;71.60;40.70;;;;;;;2.92;100.00;102016.95;105606;1264;73210;-72
2023/01/01 05:42:39;;;;;;;70.80;40.40;;;;;;;2.90;100.00;102016.48;105642;1275;62486;-72
2023/01/01 05:45:09;;;;;;;72.20;40.50;;;;;;;2.90;100.00;102022.86;105889;1266;61081;-72
2023/01/01 05:47:37;;;;;;;72.40;40.50;;;;;;;2.88;100.00;102023.74;105770;1260;73951;-73
2023/01/01 05:50:07;;;;;;;72.20;42.00;;;;;;;2.87;100.00;102025.48;105762;1270;62101;-71
2023/01/01 05:52:35;;;;;;;68.40;39.90;;;;;;;2.88;100.00;102024.23;105724;1260;70351;-71
2023/01/01 05:55:04;;;;;;;66.70;38.70;;;;;;;2.88;100.00;102025.64;105773;1270;73584;-71
2023/01/01 05:57:33;;;;;;;61.20;36.10;;;;;;;2.80;100.00;102026.64;105656;1265;63571;-72
2023/01/01 06:00:02;;;;;;;66.10;38.40;;;;;;;2.77;100.00;102027.23;105609;1262;61212;-74
2023/01/01 06:02:34;;;;;;;65.00;40.70;;;;;;;2.74;100.00;102030.73;105708;1260;73486;-73
2023/01/01 06:05:06;;;;;;;69.50;40.30;;;;;;;2.73;100.00;102022.14;105638;1270;72417;-72
2023/01/01 06:07:36;;;;;;;71.90;41.20;;;;;;;2.72;100.00;102019.40;105774;1274;60020;-73
2023/01/01 06:10:05;;;;;;;67.30;39.30;;;;;;;2.73;100.00;102020.94;105845;1264;72915;-73
2023/01/01 06:12:34;;;;;;;70.90;40.70;;;;;;;2.76;100.00;102018.64;105813;1266;58366;-74
2023/01/01 06:15:03;;;;;;;70.40;40.60;;;;;;;2.79;100.00;102024.08;105663;1273;57508;-72
2023/01/01 06:17:33;;;;;;;78.10;41.40;;;;;;;2.81;100.00;102030.23;105733;1273;62146;-72
2023/01/01 06:20:02;;;;;;;64.90;38.80;;;;;;;2.86;100.00;102035.65;105620;1270;70249;-70
2023/01/01 06:22:30;;;;;;;67.30;38.70;;;;;;;2.89;100.00;102038.17;105664;1266;70849;-71
2023/01/01 06:24:59;;;;;;;68.00;38.90;;;;;;;2.92;100.00;102048.63;105667;1261;74190;-71
2023/01/01 06:27:29;;;;;;;71.30;39.10;;;;;;;2.96;100.00;102043.73;105640;1264;63452;-70
2023/01/01 06:29:58;;;;;;;65.80;39.50;;;;;;;3.04;100.00;102041.84;105636;1270;61157;-71
2023/01/01 06:32:27;;;;;;;76.30;41.70;;;;;;;3.11;100.00;102042.89;105606;1269;73464;-72
2023/01/01 06:34:56;;;;;;;72.30;40.20;;;;;;;3.14;100.00;102047.33;105650;1260;72012;-71
2023/01/01 06:37:27;;;;;;;68.40;37.50;;;;;;;3.17;100.00;102052.60;105795;1270;70036;-70
2023/01/01 06:39:56;;;;;;;66.90;39.20;;;;;;;3.19;100.00;102046.89;105696;1265;72937;-70
2023/01/01 06:42:25;;;;;;;67.80;39.20;;;;;;;3.26;100.00;102051.38;105539;1274;61958;-71
2023/01/01 06:45:01;;;;;;;67.30;39.30;;;;;;;3.34;100.00;102052.41;105700;1261;59697;-71
2023/01/01 06:47:34;;;;;;;69.90;37.40;;;;;;;3.42;100.00;102057.77;105627;1275;62738;-71
2023/01/01 06:50:04;;;;;;;62.30;36.50;;;;;;;3.49;100.00;102068.98;105648;1256;71225;-73
2023/01/01 06:52:33;;;;;;;61.60;37.30;;;;;;;3.49;100.00;102078.98;105657;1275;60983;-73
2023/01/01 06:55:02;;;;;;;60.90;36.50;;;;;;;3.42;100.00;102080.48;105914;1265;62306;-71
2023/01/01 06:57:33;;;;;;;58.30;34.90;;;;;;;3.49;100.00;102078.80;105797;1260;62097;-71
2023/01/01 07:00:03;;;;;;;63.40;37.40;;;;;;;3.56;100.00;102080.38;105681;1267;59044;-72
2023/01/01 07:02:32;;;;;;;65.90;37.50;;;;;;;3.68;100.00;102090.64;105719;1260;73435;-72
2023/01/01 07:05:01;;;;;;;62.90;37.60;;;;;;;3.73;100.00;102097.75;105784;1266;61930;-72
2023/01/01 07:07:30;;;;;;;62.40;37.60;;;;;;;3.80;100.00;102099.16;105803;1269;69660;-70
2023/01/01 07:10:04;;;;;;;63.40;37.70;;;;;;;3.84;100.00;102102.67;105686;1260;62731;-72
2023/01/01 07:12:33;;;;;;;60.70;38.20;;;;;;;3.92;100.00;102100.77;105712;1260;59090;-71
2023/01/01 07:15:03;;;;;;;65.70;39.20;;;;;;;3.95;100.00;102105.19;105643;1260;61071;-74
2023/01/01 07:17:32;;;;;;;63.70;38.00;;;;;;;4.00;100.00;102103.70;105767;1265;72094;-76
2023/01/01 07:20:01;;;;;;;66.80;40.20;;;;;;;3.99;100.00;102104.41;105723;1260;72402;-72
2023/01/01 07:22:29;;;;;;;65.10;39.50;;;;;;;3.96;100.00;102104.98;105630;1266;70802;-73
2023/01/01 07:24:58;;;;;;;68.20;38.00;;;;;;;3.95;100.00;102104.68;105706;1267;65107;-73
2023/01/01 07:27:27;;;;;;;65.50;40.20;;;;;;;4.02;100.00;102108.33;105871;1269;59205;-72
2023/01/01 07:29:56;;;;;;;61.70;40.00;;;;;;;4.01;100.00;102109.89;105840;1267;60033;-72
2023/01/01 07:32:25;;;;;;;63.10;38.00;;;;;;;4.04;100.00;102116.54;105751;1262;74488;-72
2023/01/01 07:34:53;;;;;;;65.50;38.90;;;;;;;4.12;100.00;102117.23;105677;1266;62198;-73
2023/01/01 07:37:25;;;;;;;66.90;39.30;;;;;;;4.16;100.00;102120.74;105793;1265;59982;-75
2023/01/01 07:39:54;;;;;;;67.10;39.20;;;;;;;4.24;100.00;102128.83;105664;1260;73023;-74
2023/01/01 07:42:22;;;;;;;66.10;39.00;;;;;;;4.38;100.00;102130.92;105684;1270;62365;-71
2023/01/01 07:44:51;;;;;;;65.40;39.40;;;;;;;4.43;100.00;102128.73;105683;1270;59139;-72
2023/01/01 07:47:24;;;;;;;62.50;38.20;;;;;;;4.54;100.00;102133.12;105439;1260;63339;-73
2023/01/01 07:49:53;;;;;;;64.10;40.80;;;;;;;4.63;100.00;102136.35;105554;1269;61862;-72
2023/01/01 07:52:22;;;;;;;61.30;38.40;;;;;;;4.72;100.00;102135.08;105539;1267;69532;-72
2023/01/01 07:54:51;;;;;;;65.60;39.70;;;;;;;4.83;100.00;102137.75;105443;1270;73998;-71
2023/01/01 07:57:20;;;;;;;58.90;37.60;;;;;;;4.95;99.69;102136.56;105434;1260;59169;-72
2023/01/01 07:59:49;;;;;;;60.80;37.80;;;;;;;5.07;99.45;102130.39;105404;1270;58303;-73
2023/01/01 08:02:18;;;;;;;59.90;37.30;;;;;;;5.18;98.94;102130.42;105444;1267;72686;-73
2023/01/01 08:04:47;;;;;;;58.20;36.50;;;;;;;5.27;98.76;102137.27;105584;1275;61993;-73
2023/01/01 08:07:16;;;;;;;57.70;36.50;;;;;;;5.38;98.26;102138.67;105468;1269;70349;-73
2023/01/01 08:09:45;;;;;;;56.50;35.40;;;;;;;5.45;97.81;102146.80;105469;1260;74012;-72
2023/01/01 08:12:13;;;;;;;55.50;35.70;;;;;;;5.56;98.37;102151.30;105422;1271;62524;-73
2023/01/01 08:14:42;;;;;;;60.30;36.90;;;;;;;5.70;96.99;102154.02;105419;1267;59159;-72
2023/01/01 08:17:11;;;;;;;64.20;37.70;;;;;;;5.83;96.63;102156.05;105499;1274;62135;-72
2023/01/01 08:19:40;;;;;;;63.40;38.70;;;;;;;5.93;96.34;102151.48;105409;1260;71267;-72
2023/01/01 08:22:09;;;;;;;57.90;36.40;;;;;;;6.00;95.77;102153.35;105882;1257;68908;-72
2023/01/01 08:24:38;;;;;;;59.50;37.10;;;;;;;6.05;94.92;102148.52;105888;1267;73006;-72
2023/01/01 08:27:12;;;;;;;56.50;36.20;;;;;;;6.16;95.21;102144.36;105860;1268;58811;-73
2023/01/01 08:29:43;;;;;;;60.40;38.30;;;;;;;6.21;94.45;102144.02;106111;1260;59038;-73
2023/01/01 08:32:12;;;;;;;60.90;38.10;;;;;;;6.24;94.22;102145.67;105920;1261;73680;-74
2023/01/01 08:34:41;;;;;;;60.10;38.70;;;;;;;6.30;94.04;102140.63;105876;1268;61658;-73
2023/01/01 08:37:13;;;;;;;62.30;39.80;;;;;;;6.37;93.19;102140.27;105920;1260;59739;-73
2023/01/01 08:39:42;;;;;;;60.30;38.40;;;;;;;6.40;92.89;102139.63;105991;1260;62214;-73
2023/01/01 08:42:11;;;;;;;61.20;38.30;;;;;;;6.49;93.03;102137.95;105876;1260;62645;-72
2023/01/01 08:44:40;;;;;;;56.20;37.40;;;;;;;6.56;92.54;102133.56;105826;1263;59065;-71
2023/01/01 08:47:21;;;;;;;58.80;35.20;;;;;;;6.58;92.08;102128.14;105980;1256;63290;-71
2023/01/01 08:49:51;;;;;;;62.10;37.00;;;;;;;6.70;92.01;102127.40;105978;1260;71401;-73
2023/01/01 08:52:21;;;;;;;58.90;36.60;;;;;;;6.84;91.83;102128.46;105970;1262;59497;-73
2023/01/01 08:54:50;;;;;;;62.90;37.80;;;;;;;6.99;91.25;102128.31;106058;1268;73810;-73
2023/01/01 08:57:20;;;;;;;57.30;37.30;;;;;;;7.12;90.30;102130.59;106166;1253;59036;-73
2023/01/01 09:03:22;;;;;;;53.40;34.10;;;;;;;7.25;88.93;102114.73;106037;1260;73459;-73
2023/01/01 09:05:55;;;;;;;56.10;35.90;;;;;;;7.53;88.37;102126.70;106109;1260;61856;-75
2023/01/01 09:08:25;;;;;;;53.60;35.20;;;;;;;7.71;88.63;102122.02;106230;1261;59989;-73
2023/01/01 09:11:01;;;;;;;60.30;36.20;;;;;;;7.86;87.31;102116.08;106257;1257;63156;-73
2023/01/01 09:13:31;;;;;;;54.10;34.80;;;;;;;8.06;88.73;102108.23;106175;1257;58712;-73
2023/01/01 09:16:00;;;;;;;51.40;33.90;;;;;;;8.18;87.07;102104.77;106189;1259;58643;-72
2023/01/01 09:18:31;;;;;;;55.00;36.10;;;;;;;8.29;86.20;102101.22;106237;1260;64013;-73
2023/01/01 09:21:01;;;;;;;55.20;36.00;;;;;;;8.39;85.43;102105.16;106202;1256;60838;-73
2023/01/01 09:23:30;;;;;;;54.00;35.40;;;;;;;8.42;85.03;102107.97;106382;1263;69571;-75
2023/01/01 09:26:08;;;;;;;54.70;36.10;;;;;;;8.44;85.14;102107.52;106288;1260;63815;-72
2023/01/01 09:28:37;;;;;;;56.70;35.40;;;;;;;8.40;84.69;102102.83;106392;1268;57606;-73
2023/01/01 09:31:07;;;;;;;60.50;38.60;;;;;;;8.34;84.54;102097.38;106263;1255;59123;-74
2023/01/01 09:33:37;;;;;;;62.00;37.90;;;;;;;8.32;84.80;102096.73;106191;1260;72665;-74
2023/01/01 09:36:30;;;;;;;59.70;37.20;;;;;;;8.37;84.52;102089.42;106148;1266;61818;-73
2023/01/01 09:39:01;;;;;;;58.80;37.30;;;;;;;8.40;84.54;102079.77;106174;1267;69618;-73
2023/01/01 09:42:23;;;;;;;59.60;37.30;;;;;;;8.53;84.88;102076.98;106099;1260;73261;-73
2023/01/01 09:45:22;;;;;;;56.40;36.30;;;;;;;8.72;84.44;102072.70;105705;1270;59118;-74
2023/01/01 09:48:10;;;;;;;54.90;35.30;;;;;;;8.87;83.28;102064.23;105611;1266;60176;-72
2023/01/01 09:50:44;;;;;;;57.30;37.50;;;;;;;9.03;83.08;102066.46;106165;1256;72588;-73
2023/01/01 09:53:36;;;;;;;54.00;35.80;;;;;;;9.18;82.98;102069.11;106109;1260;62412;-72
2023/01/01 09:56:16;;;;;;;55.20;36.00;;;;;;;9.31;81.80;102067.29;106031;1260;71386;-74
2023/01/01 09:58:45;;;;;;;54.50;34.80;;;;;;;9.40;80.83;102066.39;105959;1260;62978;-73
2023/01/01 10:01:53;;;;;;;53.50;33.00;;;;;;;9.43;80.28;102061.70;106033;1259;61833;-73
2023/01/01 10:04:49;;;;;;;53.00;35.10;;;;;;;9.59;79.90;102056.80;106003;1266;59219;-73
2023/01/01 10:07:34;;;;;;;51.50;36.30;;;;;;;9.63;80.08;102050.85;106115;1268;70959;-75
2023/01/01 10:10:19;;;;;;;51.30;34.30;;;;;;;9.59;79.96;102051.24;106204;1260;70336;-72
2023/01/01 10:13:14;;;;;;;56.50;35.20;;;;;;;9.79;79.98;102050.80;106218;1260;69530;-73
2023/01/01 10:16:36;;;;;;;50.90;34.20;;;;;;;9.96;78.77;102052.41;106061;1268;71703;-74
2023/01/01 10:19:36;;;;;;;56.40;35.40;;;;;;;10.15;78.62;102053.05;106197;1257;61742;-72
2023/01/01 10:22:26;;;;;;;58.70;34.30;;;;;;;10.35;78.01;102053.15;106070;1267;60951;-74
2023/01/01 10:25:26;;;;;;;56.20;33.70;;;;;;;10.54;77.08;102049.05;106086;1254;63431;-73
2023/01/01 10:28:19;;;;;;;52.20;34.10;;;;;;;10.77;76.82;102047.84;106102;1257;71252;-71
2023/01/01 10:30:50;;;;;;;50.60;35.30;;;;;;;10.94;75.89;102043.30;106112;1257;70653;-72
2023/01/01 10:33:20;;;;;;;49.90;33.10;;;;;;;11.17;75.17;102041.35;105943;1263;73663;-77
2023/01/01 10:35:54;;;;;;;51.10;33.80;;;;;;;11.40;73.98;102036.66;106172;1259;59048;-72
2023/01/01 10:38:25;;;;;;;49.40;33.30;;;;;;;11.67;71.95;102033.59;106099;1260;58821;-72
2023/01/01 10:41:09;;;;;;;54.00;33.10;;;;;;;11.80;70.79;102030.62;106127;1260;62887;-73
2023/01/01 10:43:48;;;;;;;55.50;32.70;;;;;;;11.87;70.40;102029.00;106081;1255;60641;-72
2023/01/01 10:46:23;;;;;;;48.90;33.10;;;;;;;11.98;69.99;102027.48;106024;1268;69692;-73
2023/01/01 10:49:06;;;;;;;47.60;31.90;;;;;;;12.15;69.88;102021.09;106045;1255;64024;-72
2023/01/01 10:51:41;;;;;;;48.10;33.50;;;;;;;12.15;69.48;102015.88;106146;1263;59042;-72
2023/01/01 10:54:33;;;;;;;49.80;33.30;;;;;;;12.35;69.38;102018.90;105979;1268;57520;-73
2023/01/01 10:57:25;;;;;;;46.30;32.70;;;;;;;12.62;69.43;102017.06;106000;1268;62176;-72
2023/01/01 11:00:23;;;;;;;48.90;33.10;;;;;;;12.80;68.49;102010.77;106060;1258;61601;-73
2023/01/01 11:03:18;;;;;;;46.30;32.60;;;;;;;12.60;68.01;102007.23;105998;1257;60002;-72
2023/01/01 11:06:26;;;;;;;46.60;33.40;;;;;;;12.66;68.05;102000.96;105946;1257;73821;-72
2023/01/01 11:08:59;;;;;;;46.00;32.20;;;;;;;12.67;67.98;102001.42;105951;1260;58979;-73
2023/01/01 11:11:35;;;;;;;44.50;29.60;;;;;;;12.58;68.22;102001.60;105936;1262;59048;-73
2023/01/01 11:14:21;;;;;;;43.70;30.30;;;;;;;12.49;68.46;101991.70;106009;1255;71489;-73
2023/01/01 11:16:51;;;;;;;43.40;31.40;;;;;;;12.34;69.11;101992.77;106073;1264;61370;-72
2023/01/01 11:19:35;;;;;;;45.00;31.20;;;;;;;12.17;69.78;101988.66;105976;1268;69669;-74
2023/01/01 11:22:06;;;;;;;46.30;32.10;;;;;;;12.05;70.51;101987.63;106096;1263;63212;-72
2023/01/01 11:24:38;;;;;;;52.20;31.70;;;;;;;12.39;69.64;101989.26;106142;1261;57989;-73
2023/01/01 11:27:25;;;;;;;46.80;31.70;;;;;;;12.50;68.94;101984.46;105911;1262;59590;-74
2023/01/01 11:30:20;;;;;;;47.90;32.50;;;;;;;12.55;68.90;101981.52;106168;1263;62494;-72
2023/01/01 11:33:00;;;;;;;46.00;30.10;;;;;;;12.78;68.55;101987.80;106123;1260;60933;-74
2023/01/01 11:35:48;;;;;;;45.90;32.20;;;;;;;12.95;68.06;101985.51;105881;1256;60586;-76
2023/01/01 11:38:21;;;;;;;46.10;31.50;;;;;;;13.09;67.11;101979.42;106301;1265;73856;-75
2023/01/01 11:41:06;;;;;;;43.60;31.80;;;;;;;13.02;67.40;101979.81;106235;1260;58748;-73
2023/01/01 11:43:44;;;;;;;48.50;29.40;;;;;;;13.27;66.66;101979.82;106090;1259;59110;-75
2023/01/01 11:46:23;;;;;;;46.60;30.10;;;;;;;13.38;65.93;101977.41;106122;1263;62914;-74